createdAt,value
2018-09-01T00:01:26.882Z,2.37
2018-09-01T00:03:57.181Z,2.57
2018-09-01T00:06:29.194Z,2.37
2018-09-01T00:09:01.124Z,2.27
2018-09-01T00:11:33.710Z,2.50
2018-09-01T00:14:05.703Z,2.23
2018-09-01T00:16:37.345Z,2.03
2018-09-01T00:19:08.960Z,2.03
2018-09-01T00:21:39.893Z,2.80
2018-09-01T00:24:13.189Z,2.53
2018-09-01T00:26:45.408Z,2.40
2018-09-01T00:29:15.851Z,2.40
2018-09-01T00:31:46.893Z,2.33
2018-09-01T00:34:17.201Z,2.10
2018-09-01T00:36:47.429Z,3.13
2018-09-01T00:39:18.345Z,2.13
2018-09-01T00:41:49.576Z,1.93
2018-09-01T00:44:20.041Z,1.90
2018-09-01T00:46:52.297Z,1.80
2018-09-01T00:49:23.842Z,2.10
2018-09-01T00:51:54.663Z,2.07
2018-09-01T00:54:27.108Z,2.43
2018-09-01T00:56:58.354Z,2.20
2018-09-01T00:59:30.296Z,2.30
2018-09-01T01:02:02.802Z,2.00
2018-09-01T01:04:34.105Z,1.60
2018-09-01T01:07:04.239Z,2.27
2018-09-01T01:09:34.920Z,1.80
2018-09-01T01:12:04.925Z,1.70
2018-09-01T01:23:16.778Z,1.97
2018-09-01T01:25:47.393Z,1.87
2018-09-01T01:28:19.120Z,2.23
2018-09-01T01:30:50.199Z,1.70
2018-09-01T01:33:21.282Z,1.90
2018-09-01T01:35:53.166Z,1.53
2018-09-01T01:38:25.135Z,1.70
2018-09-01T01:40:56.177Z,2.27
2018-09-01T01:43:27.767Z,1.63
2018-09-01T01:46:00.312Z,1.80
2018-09-01T01:48:31.942Z,2.00
2018-09-01T01:51:02.145Z,1.90
2018-09-01T02:00:39.905Z,1.97
2018-09-01T02:03:10.473Z,2.37
2018-09-01T02:05:41.419Z,2.30
2018-09-01T02:08:11.851Z,1.83
2018-09-01T02:10:44.394Z,2.80
2018-09-01T02:13:14.927Z,2.17
2018-09-01T02:15:46.162Z,2.13
2018-09-01T02:18:18.239Z,2.37
2018-09-01T02:20:49.197Z,2.13
2018-09-01T02:23:19.169Z,2.20
2018-09-01T02:25:49.252Z,2.50
2018-09-01T02:28:20.707Z,1.70
2018-09-01T02:30:50.918Z,1.93
2018-09-01T02:33:23.647Z,1.87
2018-09-01T02:35:56.217Z,2.13
2018-09-01T02:38:27.988Z,1.90
2018-09-01T02:40:59.610Z,2.60
2018-09-01T02:43:31.826Z,2.40
2018-09-01T02:46:02.505Z,2.43
2018-09-01T02:48:34.320Z,2.30
2018-09-01T02:51:04.756Z,2.20
2018-09-01T02:53:37.261Z,2.10
2018-09-01T02:56:09.955Z,1.90
2018-09-01T02:58:40.843Z,2.40
2018-09-01T03:01:17.166Z,2.87
2018-09-01T03:03:49.411Z,2.20
2018-09-01T03:06:22.245Z,1.87
2018-09-01T03:08:52.363Z,2.60
2018-09-01T03:11:22.812Z,2.43
2018-09-01T03:13:53.235Z,2.10
2018-09-01T03:16:23.166Z,2.07
2018-09-01T03:18:53.497Z,2.13
2018-09-01T03:21:25.270Z,2.17
2018-09-01T03:23:56.130Z,1.90
2018-09-01T03:26:26.355Z,2.10
2018-09-01T03:28:57.642Z,1.90
2018-09-01T03:31:28.781Z,2.50
2018-09-01T03:34:00.025Z,2.13
2018-09-01T03:36:31.335Z,2.00
2018-09-01T03:39:02.428Z,2.17
2018-09-01T03:41:32.712Z,2.60
2018-09-01T03:44:03.056Z,2.50
2018-09-01T03:46:34.206Z,2.03
2018-09-01T03:49:06.166Z,2.30
2018-09-01T03:51:36.799Z,2.10
2018-09-01T03:54:07.645Z,2.90
2018-09-01T03:56:38.750Z,2.20
2018-09-01T03:59:10.325Z,2.50
2018-09-01T04:01:41.323Z,2.03
2018-09-01T04:04:13.245Z,2.20
2018-09-01T04:06:43.856Z,2.67
2018-09-01T04:09:14.539Z,2.27
2018-09-01T04:11:45.874Z,2.20
2018-09-01T04:14:16.658Z,2.13
2018-09-01T04:16:47.590Z,2.50
2018-09-01T04:19:20.208Z,2.30
2018-09-01T04:21:52.177Z,2.10
2018-09-01T04:24:22.377Z,1.60
2018-09-01T04:26:52.781Z,2.60
2018-09-01T04:29:23.080Z,2.37
2018-09-01T04:31:54.488Z,2.07
2018-09-01T04:34:24.867Z,1.80
2018-09-01T04:36:56.146Z,2.30
2018-09-01T04:39:26.803Z,2.03
2018-09-01T04:41:57.292Z,1.80
2018-09-01T04:44:28.849Z,2.20
2018-09-01T04:47:00.798Z,2.10
2018-09-01T04:49:32.742Z,2.00
2018-09-01T04:52:03.256Z,2.20
2018-09-01T04:54:34.022Z,1.90
2018-09-01T04:57:05.689Z,2.50
2018-09-01T04:59:36.724Z,2.53
2018-09-01T05:02:10.730Z,2.60
2018-09-01T05:04:42.522Z,1.90
2018-09-01T05:07:15.146Z,2.37
2018-09-01T05:09:48.020Z,1.90
2018-09-01T05:12:18.870Z,1.90
2018-09-01T05:14:49.519Z,1.67
2018-09-01T05:17:19.969Z,1.90
2018-09-01T05:19:50.519Z,2.20
2018-09-01T05:22:20.562Z,2.33
2018-09-01T05:24:51.437Z,2.10
2018-09-01T05:27:24.025Z,2.20
2018-09-01T05:29:55.932Z,2.10
2018-09-01T05:32:27.331Z,2.47
2018-09-01T05:35:00.331Z,2.00
2018-09-01T05:37:34.595Z,2.07
2018-09-01T05:40:05.810Z,1.93
2018-09-01T05:42:36.012Z,1.97
2018-09-01T05:45:07.399Z,2.20
2018-09-01T05:47:38.138Z,1.87
2018-09-01T05:50:08.554Z,2.60
2018-09-01T05:52:39.151Z,2.27
2018-09-01T05:55:11.577Z,2.20
2018-09-01T05:57:41.784Z,2.47
2018-09-01T06:00:12.644Z,2.20
2018-09-01T06:02:43.388Z,1.97
2018-09-01T06:05:13.638Z,2.47
2018-09-01T06:07:44.184Z,2.33
2018-09-01T06:10:17.299Z,2.47
2018-09-01T06:12:48.694Z,2.30
2018-09-01T06:15:20.592Z,1.97
2018-09-01T06:17:50.979Z,2.20
2018-09-01T06:20:22.520Z,2.90
2018-09-01T06:22:54.206Z,2.27
2018-09-01T06:25:24.324Z,2.80
2018-09-01T06:27:57.160Z,1.90
2018-09-01T06:30:36.990Z,2.90
2018-09-01T06:33:08.768Z,1.87
2018-09-01T06:35:39.435Z,2.93
2018-09-01T06:38:10.367Z,2.57
2018-09-01T06:40:40.048Z,3.23
2018-09-01T06:43:11.419Z,2.30
2018-09-01T06:45:42.880Z,2.27
2018-09-01T06:48:16.465Z,2.43
2018-09-01T06:50:49.610Z,2.33
2018-09-01T06:53:20.450Z,3.60
2018-09-01T06:55:51.406Z,2.40
2018-09-01T06:58:21.921Z,2.67
2018-09-01T07:00:52.243Z,2.60
2018-09-01T07:03:22.234Z,2.97
2018-09-01T07:05:52.940Z,3.10
2018-09-01T07:08:24.334Z,5.13
2018-09-01T07:10:56.094Z,2.10
2018-09-01T07:13:31.919Z,2.83
2018-09-01T07:16:13.462Z,2.80
2018-09-01T07:18:45.558Z,2.83
2018-09-01T07:21:18.841Z,2.53
2018-09-01T07:23:49.985Z,2.80
2018-09-01T07:26:28.002Z,2.33
2018-09-01T07:29:01.622Z,2.13
2018-09-01T07:31:32.422Z,2.47
2018-09-01T07:34:02.919Z,2.37
2018-09-01T07:36:38.352Z,3.60
2018-09-01T07:39:14.239Z,2.77
2018-09-01T07:41:45.572Z,2.20
2018-09-01T07:44:21.726Z,2.97
2018-09-01T07:46:54.959Z,3.00
2018-09-01T07:49:37.895Z,2.80
2018-09-01T07:52:18.743Z,2.70
2018-09-01T07:54:50.185Z,2.90
2018-09-01T07:57:23.046Z,2.43
2018-09-01T07:59:54.582Z,2.50
2018-09-01T08:02:28.535Z,2.20
2018-09-01T08:05:15.631Z,2.13
2018-09-01T08:07:48.317Z,2.77
2018-09-01T08:10:35.628Z,2.43
2018-09-01T08:13:17.179Z,2.30
2018-09-01T08:15:56.416Z,2.70
2018-09-01T08:18:36.418Z,3.13
2018-09-01T08:23:57.339Z,3.10
2018-09-01T08:26:31.248Z,2.07
2018-09-01T08:29:04.873Z,3.17
2018-09-01T08:31:34.916Z,3.60
2018-09-01T08:34:06.250Z,2.93
2018-09-01T08:36:41.161Z,3.60
2018-09-01T08:39:12.388Z,3.10
2018-09-01T08:41:42.780Z,3.10
2018-09-01T08:44:14.570Z,2.90
2018-09-01T08:46:45.944Z,3.30
2018-09-01T08:49:17.143Z,2.90
2018-09-01T08:51:48.040Z,3.17
2018-09-01T08:54:18.069Z,3.63
2018-09-01T08:56:50.367Z,3.00
2018-09-01T08:59:24.427Z,3.43
2018-09-01T09:01:55.964Z,3.53
2018-09-01T09:04:27.058Z,2.77
2018-09-01T09:06:57.493Z,2.87
2018-09-01T09:09:27.920Z,3.10
2018-09-01T09:11:57.889Z,3.30
2018-09-01T09:14:27.710Z,2.60
2018-09-01T09:16:57.924Z,2.80
2018-09-01T09:19:28.459Z,3.20
2018-09-01T09:21:58.299Z,3.83
2018-09-01T09:24:29.217Z,4.87
2018-09-01T09:27:00.821Z,2.57
2018-09-01T09:29:32.681Z,3.10
2018-09-01T09:32:02.738Z,2.50
2018-09-01T09:34:33.840Z,2.53
2018-09-01T09:37:03.899Z,3.30
2018-09-01T09:39:35.875Z,2.70
2018-09-01T09:42:07.195Z,2.90
2018-09-01T09:44:37.079Z,2.97
2018-09-01T09:47:07.432Z,2.77
2018-09-01T09:49:37.839Z,2.60
2018-09-01T09:52:07.867Z,2.40
2018-09-01T09:54:39.060Z,2.50
2018-09-01T09:57:10.033Z,2.60
2018-09-01T09:59:42.242Z,3.20
2018-09-01T10:02:14.999Z,2.60
2018-09-01T10:04:45.405Z,3.30
2018-09-01T10:07:17.455Z,3.00
2018-09-01T10:09:48.678Z,2.70
2018-09-01T10:12:21.984Z,3.30
2018-09-01T10:14:54.308Z,2.70
2018-09-01T10:17:30.468Z,2.73
2018-09-01T10:20:02.289Z,2.10
2018-09-01T10:22:33.253Z,3.00
2018-09-01T10:25:05.366Z,1.77
2018-09-01T10:27:35.693Z,2.47
2018-09-01T10:30:08.243Z,2.10
2018-09-01T10:32:39.963Z,2.00
2018-09-01T10:35:14.007Z,2.20
2018-09-01T10:37:45.259Z,1.93
2018-09-01T10:40:16.684Z,2.33
2018-09-01T10:42:47.447Z,1.93
2018-09-01T10:45:18.804Z,2.57
2018-09-01T10:47:48.730Z,2.63
2018-09-01T10:50:24.223Z,2.90
2018-09-01T10:52:59.071Z,2.53
2018-09-01T10:55:29.231Z,2.00
2018-09-01T10:58:02.937Z,2.20
2018-09-01T11:00:33.886Z,2.60
2018-09-01T11:03:05.475Z,1.90
2018-09-01T11:05:37.231Z,2.20
2018-09-01T11:08:07.858Z,2.17
2018-09-01T11:10:39.731Z,2.10
2018-09-01T11:13:12.389Z,1.83
2018-09-01T11:15:47.250Z,2.00
2018-09-01T11:18:22.011Z,1.80
2018-09-01T11:20:52.706Z,1.90
2018-09-01T11:23:26.047Z,2.13
2018-09-01T11:25:56.713Z,2.20
2018-09-01T11:28:28.241Z,2.30
2018-09-01T11:31:01.356Z,1.80
2018-09-01T11:33:31.621Z,2.37
2018-09-01T11:36:04.394Z,1.83
2018-09-01T11:38:35.797Z,2.23
2018-09-01T11:41:07.289Z,2.40
2018-09-01T11:43:38.474Z,2.03
2018-09-01T11:46:09.119Z,2.03
2018-09-01T11:48:41.396Z,1.77
2018-09-01T11:51:12.945Z,2.30
2018-09-01T11:53:43.560Z,2.47
2018-09-01T11:56:14.320Z,2.20
2018-09-01T11:58:48.795Z,1.90
2018-09-01T12:01:19.953Z,2.17
2018-09-01T12:03:50.985Z,2.13
2018-09-01T12:06:24.585Z,2.20
2018-09-01T12:08:58.836Z,1.90
2018-09-01T12:11:31.022Z,1.60
2018-09-01T12:14:04.817Z,2.07
2018-09-01T12:16:37.619Z,1.80
2018-09-01T12:19:11.674Z,2.10
2018-09-01T12:21:42.260Z,2.10
2018-09-01T12:24:15.039Z,3.33
2018-09-01T12:26:46.491Z,2.90
2018-09-01T12:29:18.853Z,2.10
2018-09-01T12:31:49.910Z,2.20
2018-09-01T12:34:22.591Z,2.23
2018-09-01T12:36:56.074Z,2.57
2018-09-01T12:39:27.009Z,2.30
2018-09-01T12:41:57.558Z,2.50
2018-09-01T12:44:28.485Z,2.20
2018-09-01T12:47:00.185Z,2.07
2018-09-01T12:49:31.479Z,2.20
2018-09-01T12:52:04.250Z,2.97
2018-09-01T12:54:36.530Z,2.27
2018-09-01T12:57:07.421Z,2.10
2018-09-01T12:59:38.568Z,2.47
2018-09-01T13:02:10.734Z,2.23
2018-09-01T13:04:40.922Z,2.17
2018-09-01T13:07:11.216Z,2.20
2018-09-01T13:09:41.609Z,2.67
2018-09-01T13:12:13.718Z,2.40
2018-09-01T13:14:44.419Z,2.20
2018-09-01T13:17:14.986Z,2.00
2018-09-01T13:19:46.604Z,2.40
2018-09-01T13:22:17.860Z,2.20
2018-09-01T13:24:49.078Z,2.10
2018-09-01T13:27:20.356Z,1.90
2018-09-01T13:29:52.737Z,1.77
2018-09-01T13:32:24.363Z,2.00
2018-09-01T13:34:56.479Z,2.00
2018-09-01T13:37:31.105Z,2.30
2018-09-01T13:40:04.936Z,2.10
2018-09-01T13:42:41.147Z,2.47
2018-09-01T13:45:14.109Z,2.03
2018-09-01T13:47:44.746Z,2.17
2018-09-01T13:50:15.836Z,1.90
2018-09-01T13:52:45.859Z,1.87
2018-09-01T13:55:16.887Z,2.10
2018-09-01T13:57:48.060Z,2.53
2018-09-01T14:00:22.038Z,1.90
2018-09-01T14:02:54.997Z,2.40
2018-09-01T14:05:26.890Z,2.00
2018-09-01T14:07:58.940Z,2.17
2018-09-01T14:10:32.820Z,2.20
2018-09-01T14:13:07.376Z,2.27
2018-09-01T14:15:41.519Z,2.40
2018-09-01T14:19:16.088Z,2.73
2018-09-01T14:21:46.558Z,2.27
2018-09-01T14:24:24.957Z,2.20
2018-09-01T14:26:58.271Z,3.00
2018-09-01T14:29:32.977Z,2.63
2018-09-01T14:32:05.473Z,2.63
2018-09-01T14:39:17.241Z,2.70
2018-09-01T14:42:00.721Z,3.00
2018-09-01T14:44:45.241Z,3.17
2018-09-01T14:47:18.542Z,2.87
2018-09-01T14:49:51.882Z,2.57
2018-09-01T14:52:26.616Z,2.73
2018-09-01T14:54:58.902Z,2.70
2018-09-01T14:57:31.787Z,2.30
2018-09-01T15:00:04.860Z,3.20
2018-09-01T15:02:36.948Z,5.57
2018-09-01T15:05:12.647Z,2.90
2018-09-01T15:07:43.840Z,2.80
2018-09-01T15:10:15.848Z,2.97
2018-09-01T15:12:47.832Z,3.03
2018-09-01T15:15:17.970Z,2.57
2018-09-01T15:17:48.926Z,2.53
2018-09-01T15:20:19.786Z,2.90
2018-09-01T15:22:50.359Z,3.60
2018-09-01T15:25:20.513Z,2.67
2018-09-01T15:27:50.930Z,3.10
2018-09-01T15:30:20.984Z,3.67
2018-09-01T15:32:50.829Z,3.23
2018-09-01T15:35:27.252Z,3.33
2018-09-01T15:37:58.452Z,2.77
2018-09-01T15:40:29.473Z,3.23
2018-09-01T15:43:01.923Z,3.53
2018-09-01T15:45:35.907Z,3.40
2018-09-01T15:48:07.906Z,3.63
2018-09-01T15:50:38.429Z,3.63
2018-09-01T15:53:10.248Z,3.77
2018-09-01T15:55:39.965Z,3.10
2018-09-01T15:58:13.954Z,3.20
2018-09-01T16:00:44.408Z,3.00
2018-09-01T16:03:15.133Z,2.83
2018-09-01T16:05:46.320Z,3.00
2018-09-01T16:08:18.100Z,2.80
2018-09-01T16:10:52.914Z,3.00
2018-09-01T16:13:31.392Z,3.10
2018-09-01T16:16:10.020Z,2.90
2018-09-01T16:18:41.259Z,2.77
2018-09-01T16:21:12.328Z,2.90
2018-09-01T16:23:42.636Z,3.60
2018-09-01T16:26:17.193Z,3.40
2018-09-01T16:28:50.415Z,3.53
2018-09-01T16:31:21.896Z,3.43
2018-09-01T16:33:52.647Z,3.50
2018-09-01T16:36:23.874Z,3.70
2018-09-01T16:38:56.968Z,3.60
2018-09-01T16:41:33.626Z,2.97
2018-09-01T16:44:05.881Z,3.10
2018-09-01T16:46:37.036Z,3.57
2018-09-01T16:49:08.858Z,3.30
2018-09-01T16:51:41.305Z,2.53
2018-09-01T16:54:14.277Z,2.77
2018-09-01T16:56:45.746Z,3.30
2018-09-01T16:59:17.023Z,3.30
2018-09-01T17:01:48.412Z,2.93
2018-09-01T17:04:21.405Z,3.17
2018-09-01T17:06:57.903Z,3.97
2018-09-01T17:09:29.178Z,3.37
2018-09-01T17:12:01.690Z,3.90
2018-09-01T17:14:39.915Z,3.83
2018-09-01T17:17:15.118Z,4.10
2018-09-01T17:19:48.030Z,3.73
2018-09-01T17:22:20.836Z,3.60
2018-09-01T17:24:56.327Z,3.60
2018-09-01T17:27:27.329Z,3.77
2018-09-01T17:29:59.901Z,3.67
2018-09-01T17:32:30.356Z,3.50
2018-09-01T17:35:03.448Z,3.77
2018-09-01T17:37:37.337Z,3.57
2018-09-01T17:40:09.561Z,3.33
2018-09-01T17:42:42.702Z,3.20
2018-09-01T17:45:19.280Z,3.00
2018-09-01T17:47:52.600Z,3.90
2018-09-01T17:53:06.366Z,3.97
2018-09-01T17:55:38.396Z,3.27
2018-09-01T17:58:11.490Z,3.47
2018-09-01T18:00:44.321Z,3.97
2018-09-01T18:03:17.120Z,3.90
2018-09-01T18:05:49.181Z,3.60
2018-09-01T18:08:26.180Z,4.20
2018-09-01T18:11:00.134Z,3.70
2018-09-01T18:13:34.608Z,3.40
2018-09-01T18:16:14.081Z,3.70
2018-09-01T18:18:47.454Z,4.23
2018-09-01T18:21:24.657Z,3.70
2018-09-01T18:23:59.096Z,4.33
2018-09-01T18:26:35.781Z,3.50
2018-09-01T18:29:08.014Z,3.53
2018-09-01T18:31:40.330Z,3.40
2018-09-01T18:34:13.202Z,3.20
2018-09-01T18:36:54.389Z,3.93
2018-09-01T18:39:34.408Z,3.40
2018-09-01T18:42:06.023Z,4.07
2018-09-01T18:44:37.891Z,3.73
2018-09-01T18:47:14.206Z,3.80
2018-09-01T18:49:53.620Z,3.50
2018-09-01T18:52:30.568Z,3.97
2018-09-01T18:55:04.628Z,3.80
2018-09-01T18:57:58.250Z,4.50
2018-09-01T19:03:59.636Z,3.67
2018-09-01T19:06:36.236Z,3.53
2018-09-01T19:09:14.285Z,3.23
2018-09-01T19:11:51.800Z,3.80
2018-09-01T19:14:30.707Z,4.00
2018-09-01T19:17:09.518Z,3.30
2018-09-01T19:19:46.848Z,3.80
2018-09-01T19:22:40.223Z,3.53
2018-09-01T19:25:21.915Z,4.63
2018-09-01T19:29:00.038Z,3.80
2018-09-01T19:31:38.397Z,4.30
2018-09-01T19:34:19.164Z,3.50
2018-09-01T19:36:51.915Z,3.67
2018-09-01T19:39:25.757Z,3.97
2018-09-01T19:42:09.348Z,3.90
2018-09-01T19:44:46.989Z,3.73
2018-09-01T19:47:19.088Z,3.47
2018-09-01T19:50:09.782Z,3.50
2018-09-01T19:52:46.827Z,3.83
2018-09-01T19:58:10.998Z,4.00
2018-09-01T20:00:43.096Z,3.83
2018-09-01T20:03:13.373Z,3.87
2018-09-01T20:05:43.969Z,4.27
2018-09-01T20:08:14.340Z,4.87
2018-09-01T20:10:46.337Z,4.10
2018-09-01T20:13:18.908Z,4.07
2018-09-01T20:15:51.333Z,4.67
2018-09-01T20:18:21.912Z,4.40
2018-09-01T20:20:53.381Z,4.10
2018-09-01T20:23:23.813Z,4.50
2018-09-01T20:25:57.782Z,5.07
2018-09-01T20:28:28.171Z,5.23
2018-09-01T20:30:59.763Z,4.23
2018-09-01T20:33:30.817Z,4.33
2018-09-01T20:36:01.823Z,5.23
2018-09-01T20:38:33.263Z,8.80
2018-09-01T20:41:03.259Z,9.20
2018-09-01T20:43:34.514Z,7.00
2018-09-01T20:46:04.787Z,5.73
2018-09-01T20:48:36.503Z,5.50
2018-09-01T20:51:07.245Z,4.70
2018-09-01T20:53:38.592Z,5.00
2018-09-01T20:56:09.809Z,4.30
2018-09-01T20:58:42.251Z,4.17
2018-09-01T21:01:14.066Z,4.27
2018-09-01T21:03:45.814Z,4.20
2018-09-01T21:06:16.607Z,4.57
2018-09-01T21:08:47.156Z,4.40
2018-09-01T21:11:18.104Z,3.83
2018-09-01T21:13:48.625Z,3.80
2018-09-01T21:16:18.491Z,4.33
2018-09-01T21:18:53.553Z,4.60
2018-09-01T21:21:28.918Z,4.10
2018-09-01T21:24:02.797Z,4.30
2018-09-01T21:26:34.072Z,4.03
2018-09-01T21:29:04.650Z,4.97
2018-09-01T21:31:35.856Z,3.83
2018-09-01T21:34:06.409Z,4.10
2018-09-01T21:36:38.951Z,4.27
2018-09-01T21:39:09.764Z,4.00
2018-09-01T21:41:40.961Z,3.40
2018-09-01T21:44:12.076Z,4.53
2018-09-01T21:46:44.066Z,3.27
2018-09-01T21:49:14.904Z,4.27
2018-09-01T21:51:45.526Z,4.60
2018-09-01T21:54:17.041Z,3.33
2018-09-01T21:56:47.088Z,4.13
2018-09-01T21:59:17.148Z,3.00
2018-09-01T22:01:53.534Z,4.07
2018-09-01T22:04:26.425Z,4.33
2018-09-01T22:06:57.756Z,4.60
2018-09-01T22:09:29.289Z,6.90
2018-09-01T22:11:59.694Z,9.40
2018-09-01T22:14:31.340Z,5.23
2018-09-01T22:17:02.196Z,5.83
2018-09-01T22:19:33.720Z,4.83
2018-09-01T22:22:04.191Z,4.73
2018-09-01T22:24:34.548Z,5.27
2018-09-01T22:27:05.947Z,5.23
2018-09-01T22:29:36.904Z,4.90
2018-09-01T22:32:07.152Z,4.80
2018-09-01T22:34:38.692Z,4.80
2018-09-01T22:37:10.617Z,4.80
2018-09-01T22:39:41.782Z,5.30
2018-09-01T22:42:12.377Z,5.00
2018-09-01T22:44:42.417Z,7.00
2018-09-01T22:47:17.391Z,6.57
2018-09-01T22:49:47.788Z,5.80
2018-09-01T22:52:18.484Z,5.50
2018-09-01T22:54:48.309Z,5.20
2018-09-01T22:57:20.578Z,6.93
2018-09-01T22:59:51.996Z,7.60
2018-09-01T23:02:21.792Z,4.80
2018-09-01T23:04:51.798Z,4.67
2018-09-01T23:07:21.938Z,5.37
2018-09-01T23:09:52.115Z,5.00
2018-09-01T23:12:23.131Z,4.90
2018-09-01T23:14:53.576Z,5.70
2018-09-01T23:17:25.861Z,5.57
2018-09-01T23:19:55.727Z,6.83
2018-09-01T23:22:34.665Z,8.40
2018-09-01T23:25:04.808Z,11.67
2018-09-01T23:27:36.306Z,7.33
2018-09-01T23:30:07.606Z,6.17
2018-09-01T23:32:37.407Z,6.57
2018-09-01T23:35:09.048Z,6.80
2018-09-01T23:37:40.437Z,9.40
2018-09-01T23:40:10.845Z,6.53
2018-09-01T23:42:41.502Z,6.33
2018-09-01T23:45:12.724Z,5.13
2018-09-01T23:47:42.824Z,5.07
2018-09-01T23:50:14.070Z,4.87
2018-09-01T23:52:44.296Z,5.07
2018-09-01T23:55:16.144Z,4.60
2018-09-01T23:57:46.594Z,4.20
